Huvudsida
METAR-TAF:

METAR-TAF

Flygplatser :

Maputo, Moçambique

latitud: 25-55S, longitud: 032-34E, höjd: 39 m

Aktuellt väderrapport

Denna rapport gjordes för 55 minuter sedan, klockan 12:00 UTC
Vind 11 kt från sydost
Temperatur 25°C
Fuktighet 61%
Tryck 1016 hPa
Sikt 10 km eller mer
Få moln på en höjd av 2000 ft

METAR: FQMA 191200Z 14011KT 9999 FEW020 25/17 Q1016 NOSIG

Tid: 14:55 (12:55 UTC)

Väderprognos

Denna rapport gjordes för 2 timmar och 55 minuter sedan, klockan 10:00 UTC
Prognos gäller från 19 kl. 12 UTC till 20 kl. 18 UTC
Vind 12 kt från ost/sydost
Sikt 10 km eller mer
Få moln på en höjd av 2000 ft
Blir
från 19 kl. 18 UTC till 19 kl. 20 UTC
Vind 7 kt från syd
Blir
från 20 kl. 00 UTC till 20 kl. 02 UTC
Vind 6 kt från väst/sydväst
Blir
från 20 kl. 12 UTC till 20 kl. 14 UTC
Vind 10 kt från ost

TAF: FQMA 191000Z 1912/2018 12012KT 9999 FEW020 TX26/1913Z TN15/2002Z BECMG 1918/1920 18007KT BECMG 2000/2002 24006KT BECMG 2012/2014 10010KT

Aktuella väderrapporter och prognoser från 4000 flygplatser (METAR- och TAF-rapporter).

De tillgängliga stationerna syns som gula och röda prickar på kartan.

För musen över prickarna för att se namnen på stationerna.

Klicka sedan för att få väderrapporter och prognoser.

För att ändra kartan: Klicka på de gröna knapparna med ett svart kors på för att zooma in; den gröna knappen med ett streck på för att zooma ut; eller på de gröna pilarna för angränsande kartor.


METAR-TAF: